KEED

Needles Airport

Needles, California, USA
METAR KEED 192256Z AUTO VRB03KT 10SM BKN110 46/09 A2972 RMK AO2 SLP018 T04610094 $
Observed Flight Rules
Aug-19 @ 22:56 UTC (13 minutes ago) Visual Flight Rules
Wind Visibility Clouds
Variable at 3 knots 10 miles
  • Broken at 11,000' AGL
Temperatures Readings
Current 46°C / 115°F
Dewpoint 9°C / 48°F
Humidity 11%
Altimeter 29.72" Hg
Pressure 1001.8 hPa
Elevation 302
METAR KEED 192256Z AUTO VRB03KT 10SM BKN110 46/09 A2972 RMK AO2 SLP018 T04610094 $
Observed Flight Rules
Aug-19 @ 22:56 UTC
(13 minutes ago)
VFR
Wind Visibility
Variable at 3 knots 10 miles
Clouds
  • Broken at 11,000' AGL
Temperature Dewpoint
46°C / 115°F 9°C / 48°F
Humidity Altimeter Pressure
11% 29.72" Hg 1001.8 hPa